Aeroporto :
LOGIN :

Iscrizione | Disclaimer

   EN    FR    IT 

 










Sommario :    VFR   VFR Marginale   IFR   IFR Intensivo   IFR Molto Intensivo
Visibilità : 
Base nubi : 
>= 8 km
>= 3000ft
5 / 8 km
1000 / 3000 ft
1500m / 5 km
500 / 1000 ft
800 / 1500m
200 / 500 ft
< 800m
< 200 ft
Simboli :   Temporali  Nebbia  Neve Forte  Precipitazioni Forti  Vento > 20 kt
SIGMETs :   Varie  Temporali  Ghiacco  Turbolenza  Onda orograficha  Ceneri Vulcaniche






- Altitudine del aeroporto : 85 ft
- Codice IATA : SFA


DTTX - Thyna/El Maou - Sfax

ULTIMO METAR :
  • 171400Z 12006KT 080V150 8000 SCT020 17/08 Q1026

METARs OBSOLETI :
  • 171300Z 13006KT 050V170 9999 SCT020 17/08 Q1026
  • 171200Z 10005KT 050V150 9999 SCT020 17/09 Q1027

TAF TAF DTTX
Valido dal 17 a 12 ore il 18 a 12 ore UTC


171100Z 1712/1812 05005KT 9999 SCT020
BECMG 1713/1715 15010KT
BECMG 1716/1718 15003KT
PROB30 1805/1807 3000 BR FEW014
BECMG 1807/1809 30006KT 5000
BECMG 1810/1812 02010KT 8000 FEW020



MetMap, La meteo Aeronautica in un colpo d'occhio ! - Copyright ORBIFLY Dicembre 2007 - Disclaimer

ORBIFLY MET'MAP TEAM :

Programmazione e sviluppo : Alexandra Zaïnal
Concezione : Baudouin d'Aumeries
Aiuto per la programmazione : Marc-Olivier Méhu
Supporto tecnico e logistico : Manuel Goepfert
Aiuto per la traduzione : Arnaldo La Scala

Contatto : metmap@orbifly.com




FONTI E CREDITI :

   NOAA